This is the latest recevied weather packets stored in our database for station/object W5HKR. If no packets are shown the sender has not sent any weather packets the latest 1 day(s).
| Time | Temp. | Humidity | Pressure | Rain* | Wind** | Luminosity | Snow |
|---|---|---|---|---|---|---|---|
| 1778096905 | 18.33° C | 91% | 990.6 hPa | 0 mm | - | - | - |
| 1778096605 | 30.56° C | 64% | 981.4 hPa | 0 mm | - | - | - |
| 1778096004 | 18.33° C | 91% | 990.6 hPa | 0 mm | - | - | - |
| 1778095704 | 30° C | 67% | 982 hPa | 0 mm | - | - | - |
| 1778095405 | 18.33° C | 91% | 990.6 hPa | 0 mm | - | - | - |
| 1778095104 | 29.44° C | 69% | 981.6 hPa | 0 mm | - | - | - |
| 1778094235 | 18.33° C | 91% | 990.6 hPa | 0 mm | - | - | - |
| 1778094205 | 30° C | 69% | 981.7 hPa | 0 mm | - | - | - |
| 1778093305 | 30° C | 71% | 981.7 hPa | 0 mm | - | - | - |
| 1778093005 | 30° C | 71% | 982.1 hPa | 0 mm | - | - | - |
| 1778092405 | 29.44° C | 72% | 981.7 hPa | 0 mm | - | - | - |
| 1778092075 | 18.33° C | 91% | 990.6 hPa | 0 mm | - | - | - |
| 1778090996 | 28.33° C | 74% | 982.7 hPa | 0 mm | - | - | - |
| 1778090905 | 28.33° C | 74% | 982.4 hPa | 0 mm | - | - | - |
| 1778089705 | 18.33° C | 91% | 990.6 hPa | 0 mm | - | - | - |
| 1778089105 | 27.78° C | 79% | 982.4 hPa | 0 mm | - | - | - |
| 1778087755 | 27.22° C | 80% | 982.7 hPa | 0 mm | - | - | - |
| 1778087605 | 18.33° C | 91% | 990.6 hPa | 0 mm | - | - | - |
| 1778086675 | 26.67° C | 83% | 982.3 hPa | 0 mm | - | - | - |
| 1778086405 | 18.33° C | 91% | 990.6 hPa | 0 mm | - | - | - |
| 1778086106 | 18.33° C | 91% | 990.6 hPa | 0 mm | - | - | - |
| 1778085805 | 26.11° C | 83% | 982.7 hPa | 0 mm | - | - | - |
| 1778085595 | 26.11° C | 84% | 982.7 hPa | 0 mm | - | - | - |
| 1778085505 | 26.11° C | 85% | 982.5 hPa | 0 mm | - | - | - |
| 1778084904 | 25.56° C | 84% | 983.1 hPa | 0 mm | - | - | - |
* Rain latest hour (hover to see other rain measurements)
** Current wind speed in m/s (hover to see current wind gust speed)